Time;durP1;ratioP1;P1;durP2;ratioP2;P2;SDS_P1;SDS_P2;PMS_P1;PMS_P2;Temp;Humidity;BMP_temperature;BMP_pressure;BME280_temperature;BME280_humidity;BME280_pressure;Samples;Min_cycle;Max_cycle;Signal;HPM_P1;HPM_P2
2022/04/10 00:01:10;;;;;;;13.13;6.38;;;;;;;-0.18;84.52;94003.13;5030890;28;20049;-50
2022/04/10 00:03:37;;;;;;;11.63;6.03;;;;;;;-0.20;84.94;94005.38;5032485;28;20065;-50
2022/04/10 00:06:04;;;;;;;11.23;5.50;;;;;;;-0.24;84.03;94013.34;5031493;28;20045;-47
2022/04/10 00:08:30;;;;;;;11.40;5.50;;;;;;;-0.24;84.51;94017.97;5031302;28;20684;-51
2022/04/10 00:10:57;;;;;;;14.43;7.23;;;;;;;-0.36;85.32;94018.00;5032563;28;20469;-49
2022/04/10 00:13:24;;;;;;;10.52;5.57;;;;;;;-0.32;85.17;94017.00;5031841;28;21699;-49
2022/04/10 00:15:51;;;;;;;10.27;5.03;;;;;;;-0.42;85.13;94015.56;5032510;28;20038;-46
2022/04/10 00:18:18;;;;;;;9.90;5.22;;;;;;;-0.39;85.92;94018.69;5031852;28;20045;-47
2022/04/10 00:20:45;;;;;;;10.30;5.25;;;;;;;-0.71;87.68;94013.97;5032435;28;20041;-47
2022/04/10 00:23:12;;;;;;;9.33;5.10;;;;;;;-0.64;87.00;94010.72;5032007;28;20050;-47
2022/04/10 00:25:39;;;;;;;10.07;5.32;;;;;;;-0.70;87.71;94004.00;5031997;28;20071;-46
2022/04/10 00:28:07;;;;;;;14.57;6.75;;;;;;;-0.69;86.99;94000.16;5031354;28;20041;-55
2022/04/10 00:30:34;;;;;;;12.68;6.20;;;;;;;-0.71;86.83;93997.03;5032202;28;20547;-49
2022/04/10 00:33:01;;;;;;;12.35;5.88;;;;;;;-0.77;86.84;94001.09;5031578;28;20060;-49
2022/04/10 00:35:28;;;;;;;12.43;6.13;;;;;;;-0.99;87.81;93995.06;5032070;28;20121;-46
2022/04/10 00:37:55;;;;;;;12.65;5.68;;;;;;;-0.92;87.57;93989.91;5030453;28;20046;-50
2022/04/10 00:40:21;;;;;;;10.65;5.70;;;;;;;-0.89;87.24;93999.19;5031573;28;20067;-53
2022/04/10 00:42:49;;;;;;;12.88;6.40;;;;;;;-0.92;86.94;93997.97;5032047;28;20053;-53
2022/04/10 00:45:17;;;;;;;15.32;7.32;;;;;;;-0.95;87.26;94005.94;5031420;28;20053;-52
2022/04/10 00:47:45;;;;;;;15.87;7.23;;;;;;;-0.93;86.77;93999.09;5030566;28;20471;-50
2022/04/10 00:50:14;;;;;;;13.15;6.47;;;;;;;-1.08;87.24;93999.81;5031133;28;20038;-52
2022/04/10 00:52:42;;;;;;;12.70;6.30;;;;;;;-1.14;87.25;93999.25;5031640;28;20053;-52
2022/04/10 00:55:10;;;;;;;11.48;5.30;;;;;;;-1.12;87.08;93988.94;5031168;28;20056;-47
2022/04/10 00:57:37;;;;;;;12.95;5.70;;;;;;;-1.12;87.71;93993.53;5031647;28;20072;-51
2022/04/10 01:00:09;;;;;;;13.30;6.87;;;;;;;-1.15;87.05;93989.59;5031076;28;20063;-48
2022/04/10 01:02:37;;;;;;;18.58;9.00;;;;;;;-1.13;87.10;93990.03;5031486;28;20067;-53
2022/04/10 01:05:04;;;;;;;13.25;6.88;;;;;;;-1.17;86.70;93991.84;5031114;28;20068;-51
2022/04/10 01:07:31;;;;;;;14.15;6.50;;;;;;;-1.17;86.88;93996.44;5031445;28;20679;-49
2022/04/10 01:09:58;;;;;;;12.20;5.82;;;;;;;-1.22;86.54;93998.25;5031566;28;20041;-48
2022/04/10 01:12:25;;;;;;;13.23;5.70;;;;;;;-1.26;86.70;94001.97;5030636;28;20368;-48
2022/04/10 01:14:52;;;;;;;11.95;5.60;;;;;;;-1.24;87.25;93999.72;5031380;28;20515;-50
2022/04/10 01:17:19;;;;;;;10.35;4.93;;;;;;;-1.22;86.91;94003.63;5029756;28;20041;-48
2022/04/10 01:19:46;;;;;;;12.13;5.82;;;;;;;-1.21;86.63;94015.19;5031037;28;20056;-55
2022/04/10 01:22:26;;;;;;;14.50;5.70;;;;;;;-1.49;87.19;94012.38;5030923;28;20060;-50
2022/04/10 01:24:53;;;;;;;9.90;5.03;;;;;;;-1.65;88.40;94007.69;5031004;28;20049;-48
2022/04/10 01:27:20;;;;;;;9.75;4.97;;;;;;;-1.61;88.34;94002.41;5030880;28;20138;-51
2022/04/10 01:29:47;;;;;;;10.70;5.00;;;;;;;-1.56;87.82;94001.41;5020315;28;20053;-47
2022/04/10 01:32:13;;;;;;;11.90;5.45;;;;;;;-1.55;87.79;94000.28;5020435;28;20049;-50
2022/04/10 01:34:41;;;;;;;11.45;6.00;;;;;;;-1.54;88.06;93999.19;5030947;28;20048;-45
2022/04/10 01:37:09;;;;;;;12.10;5.80;;;;;;;-1.58;87.45;94011.72;5029174;28;20045;-50
2022/04/10 01:39:35;;;;;;;11.50;5.50;;;;;;;-1.61;87.65;94003.22;5030764;28;20076;-52
2022/04/10 01:42:02;;;;;;;11.15;5.38;;;;;;;-1.63;87.35;94004.66;5030331;28;20122;-47
2022/04/10 01:44:29;;;;;;;12.05;5.35;;;;;;;-1.61;87.00;94010.47;5030815;28;20056;-49
2022/04/10 01:46:56;;;;;;;11.20;5.50;;;;;;;-1.63;87.29;94007.34;5030659;28;20063;-48
2022/04/10 01:49:22;;;;;;;12.27;5.20;;;;;;;-1.61;87.45;94007.78;5030444;28;20043;-47
2022/04/10 01:51:49;;;;;;;10.13;5.20;;;;;;;-1.60;87.19;94014.75;5030473;28;20045;-52
2022/04/10 01:54:16;;;;;;;11.00;5.82;;;;;;;-1.59;87.20;94010.16;5028774;28;20045;-52
2022/04/10 01:56:42;;;;;;;10.25;5.68;;;;;;;-1.65;87.28;94009.59;5030518;28;20033;-48
2022/04/10 01:59:09;;;;;;;11.93;5.40;;;;;;;-1.66;87.51;94011.50;5030165;28;20049;-49
2022/04/10 02:01:36;;;;;;;13.27;5.87;;;;;;;-1.64;87.70;94006.56;5030530;28;20052;-46
2022/04/10 02:04:03;;;;;;;11.93;6.00;;;;;;;-1.72;87.80;94006.69;5030048;28;20049;-51
2022/04/10 02:06:29;;;;;;;9.90;5.60;;;;;;;-1.90;88.59;94009.56;5030412;28;20041;-49
2022/04/10 02:08:56;;;;;;;12.18;5.70;;;;;;;-1.94;89.26;94011.34;5030439;28;20055;-52
2022/04/10 02:11:23;;;;;;;12.05;5.60;;;;;;;-1.88;88.88;94014.63;5029787;28;20091;-51
2022/04/10 02:13:50;;;;;;;12.03;5.80;;;;;;;-1.92;89.04;94006.44;5030369;28;20041;-48
2022/04/10 02:16:18;;;;;;;11.70;5.63;;;;;;;-1.88;89.11;94012.69;5028580;28;20042;-48
2022/04/10 02:18:48;;;;;;;12.02;5.75;;;;;;;-1.84;88.73;94005.53;5030271;28;20485;-46
2022/04/10 02:21:15;;;;;;;10.63;6.05;;;;;;;-1.83;88.72;94001.75;5029787;28;20383;-45
2022/04/10 02:23:43;;;;;;;11.50;6.15;;;;;;;-1.90;88.57;94001.50;5030329;28;20037;-51
2022/04/10 02:26:11;;;;;;;10.73;5.60;;;;;;;-1.88;88.32;94001.94;5029970;28;20051;-49
2022/04/10 02:28:40;;;;;;;10.80;5.80;;;;;;;-1.89;88.22;93997.69;5029329;28;20057;-49
2022/04/10 02:31:07;;;;;;;17.38;7.85;;;;;;;-1.89;88.07;94004.97;5020987;28;20521;-50
2022/04/10 02:33:34;;;;;;;14.27;6.60;;;;;;;-1.94;87.44;94002.50;5014535;28;20041;-52
2022/04/10 02:36:01;;;;;;;10.90;5.50;;;;;;;-1.96;87.86;94004.75;5013897;28;20041;-48
2022/04/10 02:38:28;;;;;;;9.30;5.17;;;;;;;-1.98;87.65;94009.66;5014620;28;20042;-48
2022/04/10 02:40:55;;;;;;;9.45;5.05;;;;;;;-2.05;87.18;94007.53;5014526;28;20040;-52
2022/04/10 02:43:22;;;;;;;11.25;5.18;;;;;;;-2.13;88.08;94006.50;5014068;28;20042;-50
2022/04/10 02:45:49;;;;;;;9.48;5.00;;;;;;;-2.10;87.92;94013.13;5014371;28;20056;-48
2022/04/10 02:48:16;;;;;;;12.43;5.80;;;;;;;-2.15;88.94;94006.06;5013752;28;20050;-47
2022/04/10 02:50:43;;;;;;;11.57;5.30;;;;;;;-2.33;89.53;94007.34;5014364;28;20525;-47
2022/04/10 02:53:09;;;;;;;14.65;6.07;;;;;;;-2.48;90.22;94017.59;5013803;28;20781;-52
2022/04/10 02:55:36;;;;;;;11.13;5.60;;;;;;;-2.51;90.71;94009.41;5014103;28;20072;-47
2022/04/10 02:58:03;;;;;;;15.43;6.93;;;;;;;-2.37;89.62;94017.16;5012132;28;20048;-47
2022/04/10 03:00:29;;;;;;;12.00;5.47;;;;;;;-2.36;90.42;94018.75;5013949;28;20042;-46
2022/04/10 03:02:57;;;;;;;14.00;5.37;;;;;;;-2.28;89.76;94017.88;5013795;28;20049;-53
2022/04/10 03:05:23;;;;;;;12.80;5.80;;;;;;;-2.29;90.78;94016.31;5012237;28;20498;-54
2022/04/10 03:07:55;;;;;;;11.75;5.80;;;;;;;-2.30;90.18;94014.75;5024603;28;20167;-49
2022/04/10 03:10:22;;;;;;;10.80;5.18;;;;;;;-2.32;89.25;94022.34;5033219;28;20045;-53
2022/04/10 03:12:48;;;;;;;10.02;5.03;;;;;;;-2.33;89.19;94005.44;5033570;28;20037;-49
2022/04/10 03:15:15;;;;;;;10.67;5.63;;;;;;;-2.32;88.54;94023.13;5032985;28;20191;-52
2022/04/10 03:17:42;;;;;;;12.23;5.40;;;;;;;-2.36;87.96;94024.91;5033302;28;20056;-49
2022/04/10 03:20:11;;;;;;;11.38;5.88;;;;;;;-2.35;87.98;94031.09;5032925;28;20053;-47
2022/04/10 03:22:39;;;;;;;9.88;4.97;;;;;;;-2.48;88.66;94028.34;5033117;28;20487;-45
2022/04/10 03:25:07;;;;;;;11.25;5.38;;;;;;;-2.50;88.47;94035.94;5031495;28;20045;-48
2022/04/10 03:27:34;;;;;;;10.97;5.03;;;;;;;-2.50;88.47;94033.25;5033090;28;20154;-49
2022/04/10 03:30:01;;;;;;;12.60;5.45;;;;;;;-2.48;88.84;94038.31;5024935;28;20045;-47
2022/04/10 03:32:28;;;;;;;12.07;5.60;;;;;;;-2.46;88.63;94039.53;5024809;28;20041;-49
2022/04/10 03:34:54;;;;;;;12.38;5.28;;;;;;;-2.50;88.39;94037.84;5033112;28;20072;-49
2022/04/10 03:37:21;;;;;;;13.02;5.88;;;;;;;-2.45;88.17;94041.13;5031266;28;20041;-46
2022/04/10 03:39:48;;;;;;;14.40;7.30;;;;;;;-2.41;88.33;94043.94;5032070;28;20034;-47
2022/04/10 03:42:14;;;;;;;14.38;6.82;;;;;;;-2.39;88.33;94048.97;5032555;28;20053;-49
2022/04/10 03:44:41;;;;;;;12.98;6.70;;;;;;;-2.39;88.18;94041.72;5032852;28;20037;-49
2022/04/10 03:47:08;;;;;;;14.45;6.85;;;;;;;-2.40;88.13;94045.50;5032372;28;20471;-51
2022/04/10 03:49:34;;;;;;;10.75;5.82;;;;;;;-2.37;88.21;94052.09;5033025;28;20467;-49
2022/04/10 03:52:01;;;;;;;9.97;5.23;;;;;;;-2.37;88.83;94052.09;5030944;28;20080;-48
2022/04/10 03:54:28;;;;;;;9.43;4.80;;;;;;;-2.42;88.47;94053.09;5032742;28;20090;-45
2022/04/10 03:56:55;;;;;;;11.20;5.30;;;;;;;-2.45;88.01;94051.09;5032742;28;20052;-50
2022/04/10 03:59:22;;;;;;;10.57;4.93;;;;;;;-2.48;88.58;94057.13;5030706;28;20057;-48
2022/04/10 04:01:49;;;;;;;10.68;5.50;;;;;;;-2.59;89.55;94067.47;5015226;28;20041;-48
2022/04/10 04:04:16;;;;;;;11.20;5.40;;;;;;;-2.63;89.25;94070.03;5032083;28;20053;-47
2022/04/10 04:06:43;;;;;;;10.05;5.55;;;;;;;-2.59;89.11;94061.34;5032572;28;20067;-46
2022/04/10 04:09:09;;;;;;;12.07;6.03;;;;;;;-2.58;88.54;94076.31;5032046;28;20088;-47
2022/04/10 04:11:36;;;;;;;11.02;5.47;;;;;;;-2.62;87.95;94071.63;5032501;28;20486;-47
2022/04/10 04:14:03;;;;;;;12.02;5.95;;;;;;;-2.65;87.76;94074.94;5032032;28;20037;-51
2022/04/10 04:16:29;;;;;;;12.50;6.10;;;;;;;-2.68;87.84;94078.28;5032297;28;20044;-45
2022/04/10 04:18:56;;;;;;;12.43;6.72;;;;;;;-2.67;87.95;94082.56;5032315;28;20103;-45
2022/04/10 04:21:23;;;;;;;11.88;6.40;;;;;;;-2.67;88.63;94079.09;5031847;28;20068;-48
2022/04/10 04:23:51;;;;;;;12.27;6.35;;;;;;;-2.69;88.10;94084.78;5032333;28;20054;-48
2022/04/10 04:26:18;;;;;;;15.35;7.00;;;;;;;-2.70;88.34;94088.56;5030305;28;20056;-50
2022/04/10 04:28:44;;;;;;;15.67;7.23;;;;;;;-2.77;88.86;94085.63;5032203;28;20683;-52
2022/04/10 04:31:11;;;;;;;15.15;7.18;;;;;;;-2.79;88.95;94093.22;5031751;28;20054;-48
2022/04/10 04:33:38;;;;;;;12.95;6.50;;;;;;;-2.83;88.83;94092.31;5032441;28;20038;-47
2022/04/10 04:36:05;;;;;;;13.52;6.97;;;;;;;-2.81;88.49;94095.44;5031694;28;20047;-52
2022/04/10 04:38:31;;;;;;;12.30;6.20;;;;;;;-2.92;89.43;94096.94;5032224;28;20045;-52
2022/04/10 04:40:58;;;;;;;13.87;6.67;;;;;;;-2.95;89.05;94103.75;5032187;28;20034;-48
2022/04/10 04:43:25;;;;;;;12.65;6.00;;;;;;;-2.90;88.81;94106.22;5031058;28;20903;-53
2022/04/10 04:45:51;;;;;;;11.10;5.47;;;;;;;-2.91;88.28;94098.53;5031960;28;20042;-48
2022/04/10 04:48:18;;;;;;;12.88;5.68;;;;;;;-2.88;87.95;94108.59;5031222;28;20041;-52
2022/04/10 04:50:47;;;;;;;13.48;5.95;;;;;;;-2.88;87.82;94106.72;5031803;28;20038;-55
2022/04/10 04:53:14;;;;;;;11.93;5.83;;;;;;;-2.89;87.58;94107.03;5031224;28;20041;-47
2022/04/10 04:55:41;;;;;;;68.88;29.73;;;;;;;-2.86;87.01;94107.19;5031696;28;20042;-51
2022/04/10 04:58:07;;;;;;;16.90;8.43;;;;;;;-2.84;87.20;94112.22;5031013;28;20041;-55
2022/04/10 05:00:34;;;;;;;13.20;6.45;;;;;;;-2.82;86.98;94113.47;5021906;28;20064;-47
2022/04/10 05:03:01;;;;;;;12.40;6.25;;;;;;;-2.81;86.83;94114.25;5028809;28;20042;-48
2022/04/10 05:05:28;;;;;;;12.17;5.90;;;;;;;-2.83;86.73;94117.25;5011936;28;20055;-47
2022/04/10 05:07:54;;;;;;;12.43;5.97;;;;;;;-2.75;86.69;94118.31;5022364;28;20049;-50
2022/04/10 05:10:21;;;;;;;15.98;7.32;;;;;;;-2.69;86.54;94122.38;5013390;28;20055;-50
2022/04/10 05:12:48;;;;;;;14.10;7.00;;;;;;;-2.67;86.40;94125.53;5031344;28;20057;-50
2022/04/10 05:15:15;;;;;;;15.70;6.80;;;;;;;-2.59;86.11;94131.19;5029737;28;20051;-49
2022/04/10 05:17:41;;;;;;;18.03;7.17;;;;;;;-2.63;86.02;94133.72;5031159;28;20043;-48
2022/04/10 05:20:08;;;;;;;18.88;8.32;;;;;;;-2.56;85.92;94131.28;5030353;28;20111;-51
2022/04/10 05:22:35;;;;;;;18.50;8.27;;;;;;;-2.54;85.19;94139.81;5031175;28;20037;-52
2022/04/10 05:25:02;;;;;;;17.77;8.52;;;;;;;-2.51;85.07;94144.56;5030841;28;20043;-48
2022/04/10 05:27:29;;;;;;;16.10;8.85;;;;;;;-2.43;85.16;94149.06;5031299;28;20045;-48
2022/04/10 05:29:55;;;;;;;16.40;8.57;;;;;;;-2.35;85.25;94152.81;5030837;28;20098;-47
2022/04/10 05:32:22;;;;;;;17.40;7.72;;;;;;;-2.29;85.23;94150.72;5030542;28;20106;-48
2022/04/10 05:34:49;;;;;;;14.73;7.53;;;;;;;-2.27;84.69;94153.88;5030958;28;20048;-53
2022/04/10 05:37:16;;;;;;;16.20;7.07;;;;;;;-2.25;84.84;94157.78;5029121;28;20397;-49
2022/04/10 05:39:43;;;;;;;14.50;7.18;;;;;;;-2.26;84.74;94147.38;5030687;28;20043;-47
2022/04/10 05:42:09;;;;;;;13.73;7.30;;;;;;;-2.23;84.10;94162.84;5030209;28;20509;-48
2022/04/10 05:44:37;;;;;;;14.88;7.45;;;;;;;-2.30;84.50;94162.56;5029315;28;20045;-48
2022/04/10 05:47:04;;;;;;;17.77;8.07;;;;;;;-2.32;85.39;94170.97;5030350;28;20043;-51
2022/04/10 05:49:31;;;;;;;27.65;14.13;;;;;;;-2.08;85.10;94178.38;5030536;28;20049;-52
2022/04/10 05:51:57;;;;;;;23.17;10.57;;;;;;;-1.92;85.29;94180.47;5030805;28;20075;-54
2022/04/10 05:54:24;;;;;;;27.83;11.93;;;;;;;-1.79;85.02;94178.59;5029992;28;20045;-51
2022/04/10 05:56:51;;;;;;;24.52;10.23;;;;;;;-1.91;84.83;94182.84;5030451;28;20106;-49
2022/04/10 05:59:18;;;;;;;18.80;9.23;;;;;;;-1.92;85.08;94177.78;5029856;28;20065;-49
2022/04/10 06:01:44;;;;;;;16.25;8.75;;;;;;;-1.81;85.26;94179.75;5030310;28;20060;-52
2022/04/10 06:04:11;;;;;;;24.27;11.27;;;;;;;-1.66;85.17;94178.31;5029483;28;20041;-51
2022/04/10 06:06:38;;;;;;;24.87;10.93;;;;;;;-1.50;84.84;94175.78;5030532;28;20107;-50
2022/04/10 06:09:05;;;;;;;22.92;9.95;;;;;;;-1.33;84.53;94176.72;5022513;28;20042;-51
2022/04/10 06:11:31;;;;;;;20.25;9.10;;;;;;;-1.27;84.54;94178.09;5011810;28;20041;-47
2022/04/10 06:13:58;;;;;;;17.05;8.32;;;;;;;-1.12;84.46;94184.75;5010670;28;20042;-52
2022/04/10 06:16:25;;;;;;;17.88;8.10;;;;;;;-0.94;84.24;94186.09;5009871;28;21787;-49
2022/04/10 06:18:52;;;;;;;21.60;10.27;;;;;;;-1.05;83.67;94183.09;5010421;28;20052;-54
2022/04/10 06:21:18;;;;;;;18.50;9.60;;;;;;;-1.23;84.09;94182.50;5010191;28;20070;-46
2022/04/10 06:23:45;;;;;;;18.13;9.02;;;;;;;-1.31;85.04;94187.94;5010380;28;20058;-48
2022/04/10 06:26:12;;;;;;;15.38;8.45;;;;;;;-1.19;84.81;94195.28;5010067;28;20064;-53
2022/04/10 06:28:39;;;;;;;15.00;8.38;;;;;;;-1.22;84.96;94194.03;5018389;28;20041;-52
2022/04/10 06:31:05;;;;;;;17.00;8.40;;;;;;;-1.04;85.25;94200.78;5028409;28;20045;-50
2022/04/10 06:33:32;;;;;;;16.42;8.48;;;;;;;-0.82;84.88;94201.50;5030278;28;20099;-54
2022/04/10 06:35:59;;;;;;;15.98;8.45;;;;;;;-1.16;85.07;94200.00;5028992;28;20509;-50
2022/04/10 06:38:26;;;;;;;16.35;7.88;;;;;;;-1.18;85.98;94200.31;5027982;28;20524;-52
2022/04/10 06:40:52;;;;;;;16.67;8.05;;;;;;;-0.89;85.52;94199.34;5030273;28;20072;-48
2022/04/10 06:43:20;;;;;;;16.40;8.30;;;;;;;-0.10;84.15;94201.78;5029572;28;20049;-51
2022/04/10 06:45:47;;;;;;;14.02;7.70;;;;;;;2.72;77.97;94198.13;5030091;28;20045;-50
2022/04/10 06:48:15;;;;;;;13.05;7.97;;;;;;;6.72;65.01;94201.53;5029607;28;20048;-51
2022/04/10 06:50:42;;;;;;;10.65;6.28;;;;;;;8.04;55.74;94190.03;5030173;28;20051;-48
2022/04/10 06:53:09;;;;;;;9.63;6.78;;;;;;;8.38;53.41;94189.56;5029531;28;20495;-51
2022/04/10 06:55:36;;;;;;;10.67;6.67;;;;;;;10.59;49.79;94191.28;5030106;28;20045;-48
2022/04/10 06:58:03;;;;;;;8.48;6.18;;;;;;;12.54;44.21;94193.59;5029396;28;20053;-46
2022/04/10 07:00:31;;;;;;;8.65;6.40;;;;;;;14.30;39.68;94202.84;5029634;28;20045;-52
2022/04/10 07:03:02;;;;;;;10.63;7.65;;;;;;;11.66;41.84;94188.34;5029983;28;20045;-50
2022/04/10 07:05:29;;;;;;;9.98;7.25;;;;;;;12.54;41.39;94199.09;5029189;28;20045;-52
2022/04/10 07:07:55;;;;;;;9.50;6.07;;;;;;;13.06;39.48;94192.22;5030040;28;20044;-51
2022/04/10 07:10:22;;;;;;;7.75;5.70;;;;;;;13.41;39.38;94200.19;5022968;28;20507;-48
2022/04/10 07:12:50;;;;;;;8.40;6.40;;;;;;;13.73;38.71;94182.91;5027668;28;20042;-51
2022/04/10 07:15:20;;;;;;;7.63;5.93;;;;;;;14.32;37.32;94189.38;5030084;28;20050;-47
2022/04/10 07:17:55;;;;;;;7.70;5.65;;;;;;;13.66;37.30;94194.91;5033423;28;20046;-46
2022/04/10 07:20:22;;;;;;;7.40;5.70;;;;;;;12.27;39.81;94192.91;5032963;28;20041;-47
2022/04/10 07:25:34;;;;;;;7.85;5.30;;;;;;;13.30;37.53;94192.94;5032337;28;20049;-47
2022/04/10 07:28:02;;;;;;;7.97;5.20;;;;;;;11.02;43.00;94209.25;5031487;28;20052;-51
2022/04/10 07:30:29;;;;;;;7.78;5.43;;;;;;;12.85;40.59;94198.13;5033352;28;20053;-48
2022/04/10 07:32:57;;;;;;;8.50;5.77;;;;;;;12.68;39.72;94200.03;5031976;28;20037;-53
2022/04/10 07:35:24;;;;;;;6.93;5.32;;;;;;;14.20;37.36;94199.13;5032570;28;20056;-48
2022/04/10 07:37:51;;;;;;;8.65;5.65;;;;;;;17.22;30.54;94190.06;5032782;28;20501;-51
2022/04/10 07:40:19;;;;;;;8.50;6.00;;;;;;;11.16;40.40;94212.56;5032468;28;20053;-51
2022/04/10 07:42:46;;;;;;;8.77;6.20;;;;;;;10.95;38.57;94212.84;5033272;28;20103;-53
2022/04/10 07:47:59;;;;;;;9.30;6.93;;;;;;;7.20;48.34;94215.75;5033096;28;20041;-46
2022/04/10 07:50:27;;;;;;;9.75;6.75;;;;;;;8.46;46.34;94206.78;5030885;28;20425;-49
2022/04/10 07:52:54;;;;;;;8.48;5.82;;;;;;;14.08;35.30;94211.63;5033039;28;20064;-51
2022/04/10 07:55:22;;;;;;;8.10;5.93;;;;;;;11.14;37.44;94223.19;5032296;28;20049;-56
2022/04/10 07:57:48;;;;;;;9.13;6.33;;;;;;;11.44;39.42;94220.88;5032696;28;20046;-51
2022/04/10 08:00:17;;;;;;;8.85;5.97;;;;;;;14.02;34.85;94209.84;5030966;28;20049;-50
2022/04/10 08:02:50;;;;;;;8.25;6.07;;;;;;;16.94;29.86;94215.63;5031110;28;20041;-50
2022/04/10 08:05:18;;;;;;;15.85;11.80;;;;;;;17.28;28.28;94219.53;5032081;28;20037;-52
2022/04/10 08:07:46;;;;;;;7.55;5.85;;;;;;;17.09;29.24;94223.44;5032458;28;20053;-51
2022/04/10 08:10:14;;;;;;;7.70;5.10;;;;;;;16.62;29.20;94218.66;5032145;28;20050;-54
2022/04/10 08:12:42;;;;;;;7.10;5.15;;;;;;;19.66;25.79;94224.66;5032685;28;20409;-55
2022/04/10 08:15:10;;;;;;;8.88;5.78;;;;;;;19.21;25.26;94218.69;5031992;28;20071;-55
2022/04/10 08:17:37;;;;;;;7.97;6.15;;;;;;;18.64;26.00;94221.88;5032296;28;20139;-48
2022/04/10 08:20:05;;;;;;;7.35;5.80;;;;;;;20.55;24.33;94226.03;5031854;28;20410;-50
2022/04/10 08:22:33;;;;;;;7.07;5.10;;;;;;;15.44;28.39;94232.19;5032270;28;20041;-51
2022/04/10 08:25:08;;;;;;;7.55;5.22;;;;;;;13.74;31.70;94225.84;5032424;28;20042;-48
2022/04/10 08:27:36;;;;;;;7.68;5.70;;;;;;;11.88;35.06;94232.81;5029914;28;20100;-50
2022/04/10 08:30:05;;;;;;;8.68;5.63;;;;;;;10.95;37.32;94237.56;5013914;28;20045;-51
2022/04/10 08:32:36;;;;;;;12.65;5.97;;;;;;;14.70;31.92;94239.31;5031949;28;20420;-52
2022/04/10 08:35:04;;;;;;;7.83;4.80;;;;;;;15.94;29.73;94243.78;5031664;28;20509;-48
2022/04/10 08:37:31;;;;;;;7.03;4.85;;;;;;;13.07;32.99;94245.34;5030820;28;20056;-48
2022/04/10 08:39:58;;;;;;;8.75;6.80;;;;;;;16.29;29.14;94235.56;5030811;28;20037;-56
2022/04/10 08:42:24;;;;;;;6.90;5.07;;;;;;;17.15;26.96;94232.72;5031619;28;20045;-49
2022/04/10 08:44:54;;;;;;;7.18;5.00;;;;;;;13.27;32.01;94240.59;5032056;28;20083;-49
2022/04/10 08:47:21;;;;;;;7.37;4.93;;;;;;;14.11;31.10;94243.13;5031574;28;20045;-47
2022/04/10 08:49:50;;;;;;;8.15;5.60;;;;;;;15.33;30.66;94248.28;5031894;28;20041;-54
2022/04/10 08:52:18;;;;;;;6.68;5.40;;;;;;;16.24;29.43;94242.47;5031170;28;20049;-55
2022/04/10 08:54:46;;;;;;;7.50;4.90;;;;;;;15.67;28.64;94239.41;5030589;28;20041;-51
2022/04/10 08:57:14;;;;;;;6.18;4.63;;;;;;;14.05;29.54;94242.88;5031289;28;20498;-50
2022/04/10 08:59:42;;;;;;;7.73;5.00;;;;;;;15.18;28.70;94240.41;5031573;28;20052;-48
2022/04/10 09:02:12;;;;;;;8.00;4.65;;;;;;;18.36;25.43;94246.81;5029741;28;20045;-52
2022/04/10 09:04:40;;;;;;;7.65;4.88;;;;;;;15.81;28.94;94254.84;5031636;28;20045;-53
2022/04/10 09:07:09;;;;;;;7.70;4.50;;;;;;;12.96;31.91;94251.06;5031013;28;20063;-48
2022/04/10 09:09:40;;;;;;;8.05;5.82;;;;;;;11.77;34.48;94244.75;5031410;28;20041;-49
2022/04/10 09:12:07;;;;;;;8.13;5.30;;;;;;;6.73;43.99;94268.56;5031001;28;20065;-53
2022/04/10 09:14:34;;;;;;;7.53;5.30;;;;;;;6.05;45.09;94268.91;5031324;28;20041;-55
2022/04/10 09:17:33;;;;;;;8.73;4.85;;;;;;;5.86;45.40;94261.75;5029710;28;20067;-53
2022/04/10 09:20:00;;;;;;;7.80;5.35;;;;;;;5.86;45.22;94260.97;5018340;28;20045;-46
2022/04/10 09:22:40;;;;;;;7.97;5.45;;;;;;;6.69;44.23;94256.84;5030165;28;20061;-52
2022/04/10 09:25:17;;;;;;;11.23;6.93;;;;;;;6.74;45.40;94261.94;5030834;28;20045;-48
2022/04/10 09:27:46;;;;;;;11.57;7.30;;;;;;;7.56;44.52;94270.41;5030950;28;20040;-52
2022/04/10 09:30:18;;;;;;;8.82;5.55;;;;;;;7.74;43.97;94269.66;5024684;28;20502;-50
2022/04/10 09:32:51;;;;;;;7.88;5.32;;;;;;;8.43;41.08;94264.97;5024707;28;20037;-48
2022/04/10 09:35:23;;;;;;;7.10;5.10;;;;;;;7.75;40.64;94263.81;5030371;28;20055;-52
2022/04/10 09:37:51;;;;;;;8.03;4.73;;;;;;;8.77;39.35;94263.38;5030110;28;20053;-53
2022/04/10 09:40:25;;;;;;;6.40;4.60;;;;;;;8.50;39.11;94263.03;5030229;28;20100;-54
2022/04/10 09:43:06;;;;;;;6.78;4.53;;;;;;;8.66;39.82;94261.81;5030517;28;20067;-51
2022/04/10 09:45:40;;;;;;;7.30;4.68;;;;;;;9.05;39.71;94264.44;5029726;28;20928;-49
2022/04/10 09:48:16;;;;;;;7.93;4.75;;;;;;;8.82;39.92;94264.13;5030551;28;20045;-49
2022/04/10 09:50:43;;;;;;;7.90;4.30;;;;;;;9.27;36.93;94265.13;5030686;28;20034;-46
2022/04/10 09:53:11;;;;;;;8.60;4.90;;;;;;;9.96;35.80;94265.47;5030073;28;20047;-50
2022/04/10 09:55:40;;;;;;;7.68;4.60;;;;;;;12.03;32.28;94258.91;5030713;28;20494;-50
2022/04/10 09:58:11;;;;;;;6.60;4.80;;;;;;;15.55;26.19;94256.75;5029638;28;20041;-49
2022/04/10 10:00:43;;;;;;;6.25;4.53;;;;;;;15.15;27.33;94249.59;5030544;28;20429;-54
2022/04/10 10:03:10;;;;;;;6.43;4.70;;;;;;;14.23;27.88;94247.97;5030079;28;20054;-50
2022/04/10 10:05:37;;;;;;;6.70;4.10;;;;;;;12.44;30.35;94248.84;5030360;28;20140;-49
2022/04/10 10:08:05;;;;;;;5.75;4.25;;;;;;;12.87;30.67;94248.06;5030030;28;20045;-54
2022/04/10 10:10:34;;;;;;;7.82;5.35;;;;;;;11.99;32.00;94245.22;5030369;28;20497;-52
2022/04/10 10:13:03;;;;;;;7.20;5.00;;;;;;;11.35;33.32;94249.63;5028519;28;20129;-54
2022/04/10 10:15:36;;;;;;;7.30;5.30;;;;;;;12.70;34.82;94239.72;5030616;28;20098;-49
2022/04/10 10:18:05;;;;;;;7.70;4.80;;;;;;;12.72;34.57;94239.31;5029716;28;20060;-51
2022/04/10 10:20:33;;;;;;;8.38;4.55;;;;;;;13.98;33.63;94232.78;5028897;28;20052;-50
2022/04/10 10:23:07;;;;;;;6.78;5.25;;;;;;;13.47;34.39;94224.06;5030425;28;20068;-53
2022/04/10 10:25:43;;;;;;;7.35;5.30;;;;;;;14.50;32.36;94227.59;5028292;28;20433;-51
2022/04/10 10:28:29;;;;;;;6.87;4.70;;;;;;;15.11;32.76;94234.28;5029648;28;20037;-54
2022/04/10 10:31:11;;;;;;;6.32;4.72;;;;;;;11.78;34.84;94231.75;5011663;28;20046;-47
2022/04/10 10:33:47;;;;;;;7.15;4.90;;;;;;;11.08;37.13;94233.06;5009565;28;20049;-51
2022/04/10 10:36:21;;;;;;;7.20;5.10;;;;;;;9.83;39.67;94239.75;5009872;28;20045;-48
2022/04/10 10:38:52;;;;;;;6.35;4.60;;;;;;;8.32;41.47;94237.63;5010340;28;20394;-47
2022/04/10 10:41:19;;;;;;;5.67;3.77;;;;;;;8.42;37.13;94233.34;5009686;28;20089;-53
2022/04/10 10:43:47;;;;;;;6.80;3.95;;;;;;;9.02;35.80;94228.88;5010136;28;20049;-51
2022/04/10 10:46:34;;;;;;;7.45;4.40;;;;;;;9.73;37.45;94227.69;5009882;28;20049;-49
2022/04/10 10:49:20;;;;;;;5.78;3.40;;;;;;;12.14;32.02;94223.00;5010255;28;20049;-46
2022/04/10 10:51:49;;;;;;;5.18;3.40;;;;;;;12.68;30.77;94214.59;5014308;28;20050;-48
2022/04/10 10:54:21;;;;;;;5.43;3.43;;;;;;;12.72;31.04;94214.53;5013600;28;20046;-48
2022/04/10 10:56:50;;;;;;;6.65;3.70;;;;;;;12.19;30.32;94228.81;5014415;28;20049;-56
2022/04/10 10:59:35;;;;;;;5.25;3.53;;;;;;;8.23;36.37;94231.78;5013321;28;20418;-53
2022/04/10 11:02:05;;;;;;;5.65;3.63;;;;;;;8.68;36.30;94230.16;5012437;28;20052;-50
2022/04/10 11:04:45;;;;;;;7.38;3.92;;;;;;;8.15;38.95;94237.25;5014268;28;20042;-49
2022/04/10 11:07:17;;;;;;;8.90;4.33;;;;;;;7.66;38.66;94236.06;5018645;28;20053;-52
2022/04/10 11:10:03;;;;;;;5.93;3.65;;;;;;;6.71;41.17;94240.88;5033759;28;20120;-49
2022/04/10 11:12:32;;;;;;;6.40;3.90;;;;;;;7.37;40.50;94233.31;5031269;28;20044;-51
2022/04/10 11:15:12;;;;;;;6.30;3.80;;;;;;;7.73;40.68;94233.38;5033340;28;20055;-50
2022/04/10 11:17:39;;;;;;;9.45;5.03;;;;;;;7.33;40.57;94237.22;5030838;28;20814;-50
2022/04/10 11:20:09;;;;;;;10.10;4.63;;;;;;;7.65;40.52;94226.34;5032863;28;20045;-50
2022/04/10 11:22:47;;;;;;;13.15;4.68;;;;;;;7.60;40.59;94227.47;5033612;28;20045;-48
2022/04/10 11:25:18;;;;;;;8.85;4.53;;;;;;;7.66;41.27;94227.09;5033105;28;20047;-49
2022/04/10 11:28:01;;;;;;;8.15;4.00;;;;;;;7.23;44.36;94237.97;5033372;28;20038;-51
2022/04/10 11:30:30;;;;;;;7.07;3.90;;;;;;;7.11;45.10;94244.56;5029810;28;20140;-46
2022/04/10 11:32:56;;;;;;;9.33;4.60;;;;;;;7.14;46.42;94249.22;5015467;28;20057;-47
2022/04/10 11:35:23;;;;;;;14.63;7.75;;;;;;;7.08;46.12;94237.91;5013126;28;20048;-49
2022/04/10 11:37:53;;;;;;;8.75;5.25;;;;;;;7.70;45.71;94242.31;5013413;28;20115;-51
2022/04/10 11:40:22;;;;;;;6.00;4.05;;;;;;;7.72;44.26;94239.97;5012676;28;20046;-49